Flight Track Log - Related Links

Times and Time Zones

All times are in EDT time to prevent confusion due to time zone crossing. See the EJA922 flight status page for this flight to view local times or setup timezone preferences in your user account.

Time Position Orientation Groundspeed Altitude Reporting Facility
EDT Latitude Longitude Course Direction KTS MPH feet Rate Location/Type
Wed 03:01:25 PM 53.2167 -113.7167 225° Southwest 210 242 10,400  Level Edmonton Center
Wed 03:02:25 PM 53.1333 -113.6833 167° South 300 345 12,500 2,250 Climbing Edmonton Center
Wed 03:03:25 PM 53.0333 -113.6667 174° South 360 414 14,900 2,400 Climbing Edmonton Center
Wed 03:04:25 PM 52.9333 -113.6833 186° South 380 437 17,300 2,050 Climbing Edmonton Center
Wed 03:05:25 PM 52.8167 -113.6833 180° South 410 472 19,000 1,950 Climbing Edmonton Center
Wed 03:06:00 PM 52.3765 -113.7904 188° South  Level FlightAware Approximate
Wed 03:06:25 PM 52.7000 -113.6833 180° South 430 495 21,200  Level Edmonton Center
Wed 03:07:25 PM 52.5667 -113.7167 189° South 440 506 22,500 1,400 Climbing Edmonton Center
Wed 03:08:25 PM 52.4333 -113.7333 184° South 460 529 24,000 1,600 Climbing Edmonton Center
Wed 03:09:25 PM 52.3000 -113.7333 180° South 480 552 25,700 1,500 Climbing Edmonton Center
Wed 03:10:25 PM 52.1667 -113.7667 189° South 490 564 27,000 1,200 Climbing Edmonton Center
Wed 03:11:25 PM 52.0167 -113.8000 188° South 500 575 28,100 1,100 Climbing Edmonton Center
Wed 03:12:25 PM 51.8833 -113.8000 180° South 510 587 29,200 1,200 Climbing Edmonton Center
Wed 03:13:25 PM 51.7333 -113.8167 184° South 530 610 30,500 1,550 Climbing Edmonton Center
Wed 03:14:25 PM 51.6000 -113.8333 184° South 530 610 32,300 1,800 Climbing Edmonton Center
Wed 03:15:25 PM 51.4167 -113.8667 186° South 530 610 34,100 1,950 Climbing Edmonton Center
Wed 03:16:25 PM 51.2833 -113.8833 184° South 530 610 36,200 2,400 Climbing Edmonton Center
Wed 03:17:25 PM 51.1333 -113.9000 184° South 530 610 38,900 1,900 Climbing Edmonton Center
Wed 03:18:25 PM 51.0167 -113.9333 190° South 520 598 40,000 550 Climbing Edmonton Center
Wed 03:19:25 PM 50.8500 -114.0333 201° Southwest 550 633 40,000  Level Edmonton Center
Wed 03:20:25 PM 50.7000 -114.1167 199° South 570 656 40,000  Level Edmonton Center
Wed 03:21:25 PM 50.5500 -114.1833 196° South 580 667 40,000  Level Edmonton Center
Wed 03:22:25 PM 50.3833 -114.2667 198° South 580 667 40,000  Level Edmonton Center
Wed 03:23:25 PM 50.2500 -114.3333 198° South 580 667 40,000  Level Edmonton Center
Wed 03:24:25 PM 50.0833 -114.4167 198° South 580 667 40,000  Level Edmonton Center
Wed 03:25:25 PM 49.9333 -114.4833 196° South 580 667 40,000  Level Edmonton Center
Wed 03:26:25 PM 49.7667 -114.5833 201° Southwest 580 667 40,000  Level Edmonton Center
Wed 03:27:25 PM 49.6000 -114.6500 195° South 580 667 40,000  Level Edmonton Center
Wed 03:28:25 PM 49.4500 -114.7167 196° South 580 667 40,000  Level Edmonton Center
Wed 03:29:25 PM 49.3000 -114.8000 200° South 580 667 40,000  Level Edmonton Center
Wed 03:30:25 PM 49.1500 -114.8667 196° South 580 667 40,000  Level Edmonton Center
Wed 03:31:25 PM 48.9833 -114.9333 195° South 580 667 40,000 -46 Level Edmonton Center
Wed 03:32:35 PM 48.8681 -114.9956 200° South 584 672 39,900 -46 Descending Seattle Center
Wed 03:33:36 PM 48.7150 -115.0681 197° South 582 670 39,900  Level Seattle Center
Wed 03:34:37 PM 48.5308 -115.1558 198° South 582 670 39,900  Level Seattle Center
Wed 03:35:39 PM 48.3781 -115.2250 197° South 581 669 39,900  Level Seattle Center
Wed 03:36:40 PM 48.2247 -115.2964 197° South 581 669 39,900  Level Seattle Center
Wed 03:37:41 PM 48.0706 -115.3692 198° South 584 672 39,900 49 Level Seattle Center
Wed 03:38:42 PM 47.9178 -115.4381 197° South 581 669 40,000  Climbing Seattle Center
Wed 03:39:43 PM 47.7650 -115.5069 197° South 580 667 39,900 -49 Descending Seattle Center
Wed 03:40:45 PM 47.6139 -115.5756 197° South 575 662 39,900  Level Seattle Center
Wed 03:41:46 PM 47.4322 -115.6564 197° South 572 658 39,900  Level Seattle Center
Wed 03:42:47 PM 47.2833 -115.7328 199° South 570 656 39,900  Level Seattle Center
Wed 03:43:48 PM 47.1542 -115.7961 198° South 565 650 39,900 49 Level Seattle Center
Wed 03:44:49 PM 47.0025 -115.8681 198° South 568 654 40,000  Climbing Seattle Center
Wed 03:45:51 PM 46.8219 -115.9578 199° South 570 656 39,900 -49 Descending Seattle Center
Wed 03:46:52 PM 46.6717 -116.0314 199° South 569 655 39,900  Level Seattle Center
Wed 03:47:53 PM 46.5225 -116.1022 198° South 566 651 39,900  Level Seattle Center
Wed 03:48:54 PM 46.3731 -116.1728 198° South 565 650 39,900  Level Seattle Center
Wed 03:49:55 PM 46.2236 -116.2447 198° South 565 650 39,900  Level Seattle Center
Wed 03:50:56 PM 46.0747 -116.3161 198° South 565 650 39,900  Level Seattle Center
Wed 03:51:58 PM 45.9267 -116.3867 198° South 563 648 39,900  Level Seattle Center
Wed 03:52:59 PM 45.7781 -116.4583 199° South 562 647 39,900 49 Level Seattle Center
Wed 03:54:00 PM 45.6161 -116.5339 198° South 560 644 40,000 49 Climbing Seattle Center
Wed 03:55:01 PM 45.4681 -116.6033 198° South 563 648 40,000  Level Seattle Center
Wed 03:56:02 PM 45.3217 -116.6725 198° South 558 642 40,000  Level Seattle Center
Wed 03:57:03 PM 45.1747 -116.7392 198° South 559 643 40,000  Level Seattle Center
Wed 03:58:04 PM 45.0289 -116.8053 198° South 555 639 40,000  Level Seattle Center
Wed 03:59:05 PM 44.8822 -116.8717 198° South 557 641 40,000  Level Seattle Center
Wed 03:59:35 PM 44.7961 -116.9103 198° South 555 639 40,000  Level Salt Lake Center
Wed 04:00:37 PM 44.6497 -116.9764 198° South 557 641 40,000  Level Salt Lake Center
Wed 04:01:38 PM 44.5031 -117.0414 198° South 557 641 40,000  Level Salt Lake Center
Wed 04:02:41 PM 44.3558 -117.1064 198° South 559 643 40,000  Level Salt Lake Center
Wed 04:03:42 PM 44.1794 -117.1847 198° South 560 644 40,000  Level Salt Lake Center
Wed 04:04:44 PM 44.0308 -117.2486 197° South 565 650 40,000  Level Salt Lake Center
Wed 04:05:46 PM 43.8825 -117.3133 197° South 561 646 40,000  Level Salt Lake Center
Wed 04:06:47 PM 43.7356 -117.3781 198° South 558 642 40,000  Level Salt Lake Center
Wed 04:07:49 PM 43.5875 -117.4419 197° South 560 644 40,000  Level Salt Lake Center
Wed 04:08:51 PM 43.4400 -117.5056 197° South 557 641 40,000  Level Salt Lake Center
Wed 04:09:53 PM 43.2617 -117.5814 197° South 560 644 40,000  Level Salt Lake Center
Wed 04:10:54 PM 43.1133 -117.6458 198° South 562 647 40,000  Level Salt Lake Center
Wed 04:11:56 PM 42.9653 -117.7078 197° South 559 643 40,000  Level Salt Lake Center
Wed 04:12:58 PM 42.8175 -117.7725 198° South 558 642 40,000  Level Salt Lake Center
Wed 04:14:00 PM 42.6692 -117.8358 197° South 560 644 40,000  Level Salt Lake Center
Wed 04:15:01 PM 42.5219 -117.9086 200° South 563 648 40,000  Level Salt Lake Center
Wed 04:16:03 PM 42.3808 -117.9972 205° Southwest 562 647 40,000  Level Salt Lake Center
Wed 04:17:05 PM 42.2092 -118.1011 204° Southwest 563 648 40,000  Level Salt Lake Center
Wed 04:18:07 PM 42.0647 -118.1894 204° Southwest 563 648 40,000  Level Salt Lake Center
Wed 04:19:08 PM 41.9283 -118.2711 204° Southwest 561 646 40,000  Level Salt Lake Center
Wed 04:20:10 PM 41.7700 -118.3667 204° Southwest 559 643 40,000  Level Salt Lake Center
Wed 04:21:12 PM 41.6342 -118.4469 204° Southwest 558 642 40,000 -48 Level Salt Lake Center
Wed 04:22:14 PM 41.4983 -118.5278 204° Southwest 558 642 39,900 -537 Descending Salt Lake Center
Wed 04:23:15 PM 41.3381 -118.6222 204° Southwest 562 647 38,900 -976 Descending Salt Lake Center
Wed 04:24:17 PM 41.2017 -118.7025 204° Southwest 563 648 37,900 -1,016 Descending Salt Lake Center
Wed 04:25:19 PM 41.0456 -118.7936 204° Southwest 552 635 36,800 -1,016 Descending Salt Lake Center
Wed 04:26:21 PM 40.9092 -118.8614 201° Southwest 547 629 35,800 -978 Descending Salt Lake Center
Wed 04:26:51 PM 40.8428 -118.8919 199° South 549 632 35,300 -989 Descending Oakland Center
Wed 04:27:52 PM 40.6892 -118.9628 199° South 553 636 34,300 -1,073 Descending Oakland Center
Wed 04:28:54 PM 40.5436 -119.0281 199° South 553 636 33,100 -1,659 Descending Oakland Center
Wed 04:29:55 PM 40.4011 -119.0942 199° South 549 632 30,900 -2,656 Descending Oakland Center
Wed 04:30:56 PM 40.2422 -119.1653 199° South 509 586 27,700 -2,878 Descending Oakland Center
Wed 04:31:58 PM 40.1167 -119.2225 199° South 487 560 25,000 -2,683 Descending Oakland Center
Wed 04:32:59 PM 39.9939 -119.2775 199° South 472 543 22,200 -2,852 Descending Oakland Center
Wed 04:34:00 PM 39.8767 -119.3289 199° South 455 524 19,200 -3,000 Descending Oakland Center
Wed 04:35:01 PM 39.7672 -119.3792 199° South 428 493 16,100 -2,146 Descending Oakland Center
Wed 04:36:03 PM 39.6733 -119.4206 199° South 364 419 14,800 -1,951 Descending Oakland Center
Wed 04:37:04 PM 39.5828 -119.4597 198° South 345 397 12,100 -1,377 Descending Oakland Center
Wed 04:38:05 PM 39.4983 -119.4972 199° South 333 383 12,000 -49 Descending Oakland Center
Wed 04:39:06 PM 39.4047 -119.5389 199° South 305 351 12,000 -390 Level Oakland Center
Wed 04:40:08 PM 39.3244 -119.5736 199° South 305 351 11,200 -976 Descending Oakland Center
Wed 04:41:09 PM 39.2483 -119.6069 199° South 299 344 10,000 -590 Descending Oakland Center
Wed 04:42:10 PM 39.2017 -119.6633 223° Southwest 278 320 10,000 -488 Level Oakland Center
Wed 04:43:12 PM 39.2072 -119.7431 275° West 254 292 9,000 -488 Descending Oakland Center
Wed 04:44:13 PM 39.2567 -119.7714 336° Northwest 220 253 9,000 -197 Level Oakland Center
Wed 04:45:14 PM 39.3189 -119.7692 North 213 245 8,600 -1,088 Descending Oakland Center
Wed 04:47:04 PM 39.4167 -119.7667 North 198 228 5,900 -1,306 Descending Northern Cal TRACON
Wed 04:48:04 PM 39.4667 -119.7667 360° North 131 151 4,900 -1,000 Descending Northern Cal TRACON
Wed 04:50:00 PM 39.4833 -119.7667 333° Northwest  Level FlightAware Approximate
Wed 04:57:00 PM 39.4991 -119.7681 333° Northwest  Level Estimated

Login

Don't have an account? Register now (free) for customized features, flight alerts, and more!